createdAt,value
2018-06-16T00:00:52.942Z,19.80
2018-06-16T00:03:56.115Z,19.90
2018-06-16T00:06:59.928Z,19.90
2018-06-16T00:10:03.028Z,19.90
2018-06-16T00:13:06.067Z,19.90
2018-06-16T00:16:09.137Z,19.80
2018-06-16T00:19:12.080Z,19.80
2018-06-16T00:22:15.148Z,19.80
2018-06-16T00:25:18.109Z,19.80
2018-06-16T00:28:21.061Z,19.80
2018-06-16T00:31:24.039Z,19.80
2018-06-16T00:34:27.005Z,19.80
2018-06-16T00:37:29.960Z,19.70
2018-06-16T00:40:32.912Z,19.70
2018-06-16T00:43:35.871Z,19.80
2018-06-16T00:46:38.846Z,19.80
2018-06-16T00:49:41.900Z,19.90
2018-06-16T00:52:44.864Z,19.90
2018-06-16T00:55:47.829Z,19.90
2018-06-16T00:58:50.801Z,19.70
2018-06-16T01:01:53.746Z,19.60
2018-06-16T01:04:56.705Z,19.50
2018-06-16T01:07:59.681Z,19.50
2018-06-16T01:11:02.645Z,19.50
2018-06-16T01:14:05.624Z,19.50
2018-06-16T01:17:08.611Z,19.50
2018-06-16T01:20:11.605Z,19.50
2018-06-16T01:23:14.573Z,19.40
2018-06-16T01:26:17.536Z,19.40
2018-06-16T01:29:20.482Z,19.40
2018-06-16T01:32:23.439Z,19.40
2018-06-16T01:35:26.403Z,19.40
2018-06-16T01:38:29.363Z,19.30
2018-06-16T01:41:32.356Z,19.30
2018-06-16T01:44:35.296Z,19.30
2018-06-16T01:47:38.303Z,19.10
2018-06-16T01:50:41.249Z,19.10
2018-06-16T01:53:44.197Z,19.10
2018-06-16T01:56:47.379Z,19.10
2018-06-16T01:59:50.344Z,19.20
2018-06-16T02:02:53.301Z,19.10
2018-06-16T02:05:56.269Z,19.10
2018-06-16T02:08:59.205Z,19.10
2018-06-16T02:12:02.153Z,19.10
2018-06-16T02:15:05.673Z,19.10
2018-06-16T02:18:08.669Z,19.20
2018-06-16T02:21:11.607Z,19.30
2018-06-16T02:24:14.564Z,19.30
2018-06-16T02:27:17.532Z,19.40
2018-06-16T02:30:20.517Z,19.40
2018-06-16T02:33:23.469Z,19.40
2018-06-16T02:36:26.431Z,19.50
2018-06-16T02:39:29.405Z,19.50
2018-06-16T02:42:32.384Z,19.50
2018-06-16T02:45:35.345Z,19.30
2018-06-16T02:48:38.283Z,19.30
2018-06-16T02:51:41.297Z,19.30
2018-06-16T02:54:44.202Z,19.40
2018-06-16T02:57:47.764Z,19.40
2018-06-16T03:00:50.824Z,19.40
2018-06-16T03:03:54.236Z,19.30
2018-06-16T03:06:57.238Z,19.30
2018-06-16T03:10:00.181Z,19.30
2018-06-16T03:13:03.138Z,19.30
2018-06-16T03:16:12.913Z,19.30
2018-06-16T03:19:15.830Z,19.20
2018-06-16T03:22:18.785Z,19.20
2018-06-16T03:25:21.728Z,19.20
2018-06-16T03:28:24.631Z,19.10
2018-06-16T03:31:27.538Z,19.00
2018-06-16T03:34:30.479Z,19.00
2018-06-16T03:37:33.422Z,18.90
2018-06-16T03:40:36.381Z,19.00
2018-06-16T03:43:39.313Z,18.90
2018-06-16T03:46:42.241Z,19.00
2018-06-16T03:49:45.156Z,19.10
2018-06-16T03:52:48.118Z,19.10
2018-06-16T03:55:51.034Z,19.10
2018-06-16T03:58:53.966Z,19.20
2018-06-16T04:01:56.875Z,19.20
2018-06-16T04:04:59.843Z,19.20
2018-06-16T04:08:02.775Z,19.20
2018-06-16T04:11:05.830Z,19.20
2018-06-16T04:14:08.762Z,19.10
2018-06-16T04:17:16.641Z,19.10
2018-06-16T04:20:19.582Z,19.10
2018-06-16T04:23:22.530Z,19.10
2018-06-16T04:26:25.471Z,19.00
2018-06-16T04:29:28.390Z,18.90
2018-06-16T04:32:31.328Z,18.90
2018-06-16T04:35:34.263Z,18.80
2018-06-16T04:38:37.241Z,18.80
2018-06-16T04:41:40.195Z,18.90
2018-06-16T04:44:43.108Z,18.90
2018-06-16T04:47:47.780Z,18.80
2018-06-16T04:50:50.760Z,18.80
2018-06-16T04:53:53.669Z,18.80
2018-06-16T04:56:56.658Z,18.80
2018-06-16T04:59:59.593Z,18.80
2018-06-16T05:03:02.521Z,18.90
2018-06-16T05:06:05.454Z,18.90
2018-06-16T05:09:09.945Z,18.90
2018-06-16T05:12:12.930Z,19.00
2018-06-16T05:15:16.978Z,19.10
2018-06-16T05:18:19.904Z,19.10
2018-06-16T05:21:22.853Z,19.10
2018-06-16T05:24:25.777Z,19.20
2018-06-16T05:27:28.698Z,19.20
2018-06-16T05:30:31.620Z,19.20
2018-06-16T05:33:34.584Z,19.20
2018-06-16T05:36:37.549Z,19.30
2018-06-16T05:39:40.498Z,19.30
2018-06-16T05:42:43.437Z,19.30
2018-06-16T05:45:46.380Z,19.30
2018-06-16T05:48:49.317Z,19.40
2018-06-16T05:51:52.519Z,19.50
2018-06-16T05:54:55.457Z,19.50
2018-06-16T05:57:58.373Z,19.50
2018-06-16T06:01:01.317Z,19.60
2018-06-16T06:04:04.320Z,19.60
2018-06-16T06:07:07.249Z,19.70
2018-06-16T06:10:10.282Z,19.80
2018-06-16T06:13:13.158Z,19.80
2018-06-16T06:16:16.113Z,19.80
2018-06-16T06:19:19.070Z,19.90
2018-06-16T06:22:22.129Z,20.00
2018-06-16T06:25:25.092Z,20.10
2018-06-16T06:28:28.056Z,20.20
2018-06-16T06:31:30.977Z,20.20
2018-06-16T06:34:33.923Z,20.30
2018-06-16T06:37:37.145Z,20.20
2018-06-16T06:40:40.131Z,20.30
2018-06-16T06:43:43.054Z,20.40
2018-06-16T06:46:45.986Z,20.50
2018-06-16T06:49:48.914Z,20.50
2018-06-16T06:52:51.871Z,20.50
2018-06-16T06:55:54.817Z,20.60
2018-06-16T06:58:57.779Z,20.60
2018-06-16T07:02:00.715Z,20.60
2018-06-16T07:05:03.962Z,20.70
2018-06-16T07:08:06.893Z,20.70
2018-06-16T07:11:09.833Z,20.70
2018-06-16T07:14:12.777Z,20.60
2018-06-16T07:17:15.717Z,20.60
2018-06-16T07:20:18.650Z,20.60
2018-06-16T07:23:21.618Z,20.70
2018-06-16T07:26:24.573Z,20.80
2018-06-16T07:29:27.531Z,20.70
2018-06-16T07:32:30.429Z,20.80
2018-06-16T07:35:33.373Z,21.00
2018-06-16T07:38:36.331Z,21.00
2018-06-16T07:41:39.281Z,21.00
2018-06-16T07:44:42.182Z,21.00
2018-06-16T07:47:45.121Z,21.00
2018-06-16T07:50:48.043Z,21.00
2018-06-16T07:53:57.822Z,21.10
2018-06-16T07:57:00.772Z,21.20
2018-06-16T08:00:03.854Z,21.30
2018-06-16T08:03:06.825Z,21.30
2018-06-16T08:06:09.795Z,21.40
2018-06-16T08:09:12.730Z,21.50
2018-06-16T08:12:15.673Z,21.50
2018-06-16T08:15:18.604Z,21.50
2018-06-16T08:18:21.516Z,21.70
2018-06-16T08:21:24.446Z,21.60
2018-06-16T08:24:27.481Z,21.80
2018-06-16T08:27:30.434Z,21.70
2018-06-16T08:30:33.452Z,21.70
2018-06-16T08:33:36.365Z,21.60
2018-06-16T08:36:39.324Z,21.70
2018-06-16T08:39:42.251Z,21.80
2018-06-16T08:42:45.206Z,21.80
2018-06-16T08:45:48.110Z,21.90
2018-06-16T08:48:51.015Z,22.10
2018-06-16T08:51:54.030Z,22.10
2018-06-16T08:54:56.984Z,22.10
2018-06-16T08:57:59.894Z,22.20
2018-06-16T09:01:02.861Z,22.30
2018-06-16T09:04:05.903Z,22.30
2018-06-16T09:07:08.892Z,22.30
2018-06-16T09:10:11.821Z,22.20
2018-06-16T09:13:14.796Z,22.00
2018-06-16T09:16:17.745Z,21.80
2018-06-16T09:19:20.690Z,21.80
2018-06-16T09:22:23.644Z,21.90
2018-06-16T09:25:26.685Z,22.10
2018-06-16T09:28:29.642Z,22.20
2018-06-16T09:31:32.585Z,22.10
2018-06-16T09:34:35.530Z,22.20
2018-06-16T09:37:38.452Z,22.20
2018-06-16T09:40:41.395Z,22.20
2018-06-16T09:43:44.318Z,22.10
2018-06-16T09:46:47.231Z,22.20
2018-06-16T09:49:50.274Z,22.40
2018-06-16T09:52:53.329Z,22.50
2018-06-16T09:55:56.265Z,22.60
2018-06-16T09:58:59.209Z,22.60
2018-06-16T10:02:02.192Z,22.40
2018-06-16T10:05:05.710Z,22.30
2018-06-16T10:08:08.648Z,22.30
2018-06-16T10:11:11.579Z,22.40
2018-06-16T10:14:14.521Z,22.30
2018-06-16T10:17:17.459Z,22.50
2018-06-16T10:20:20.379Z,22.60
2018-06-16T10:23:23.409Z,22.90
2018-06-16T10:26:26.370Z,22.90
2018-06-16T10:29:29.333Z,22.90
2018-06-16T10:32:32.222Z,22.90
2018-06-16T10:35:35.161Z,23.00
2018-06-16T10:38:38.086Z,22.90
2018-06-16T10:41:41.053Z,22.90
2018-06-16T10:44:43.993Z,22.90
2018-06-16T10:47:46.997Z,23.00
2018-06-16T10:50:49.927Z,23.00
2018-06-16T10:53:52.840Z,23.00
2018-06-16T10:56:55.875Z,23.00
2018-06-16T10:59:58.801Z,23.00
2018-06-16T11:03:01.727Z,23.10
2018-06-16T11:06:04.698Z,23.20
2018-06-16T11:09:08.738Z,23.10
2018-06-16T11:12:11.662Z,23.20
2018-06-16T11:15:14.605Z,23.20
2018-06-16T11:18:17.543Z,23.10
2018-06-16T11:21:20.477Z,23.10
2018-06-16T11:24:23.370Z,23.20
2018-06-16T11:27:26.396Z,23.10
2018-06-16T11:30:29.360Z,23.10
2018-06-16T11:33:32.275Z,23.20
2018-06-16T11:36:35.225Z,23.40
2018-06-16T11:39:38.158Z,23.50
2018-06-16T11:42:41.069Z,23.40
2018-06-16T11:45:44.016Z,23.30
2018-06-16T11:48:47.084Z,23.10
2018-06-16T11:51:50.062Z,23.00
2018-06-16T11:54:53.127Z,23.00
2018-06-16T11:57:56.103Z,22.90
2018-06-16T12:00:59.017Z,22.90
2018-06-16T12:04:01.965Z,22.80
2018-06-16T12:07:05.214Z,22.80
2018-06-16T12:10:08.177Z,22.90
2018-06-16T12:13:11.091Z,23.00
2018-06-16T12:16:14.125Z,23.00
2018-06-16T12:19:17.082Z,22.90
2018-06-16T12:22:20.013Z,22.90
2018-06-16T12:25:22.952Z,22.90
2018-06-16T12:28:26.008Z,22.80
2018-06-16T12:31:28.946Z,22.70
2018-06-16T12:34:31.902Z,23.00
2018-06-16T12:37:34.822Z,23.60
2018-06-16T12:40:37.789Z,23.90
2018-06-16T12:43:40.744Z,24.10
2018-06-16T12:46:43.654Z,24.20
2018-06-16T12:49:46.572Z,24.30
2018-06-16T12:52:49.504Z,24.60
2018-06-16T12:55:52.445Z,24.70
2018-06-16T12:58:55.392Z,24.80
2018-06-16T13:01:58.330Z,24.80
2018-06-16T13:05:01.289Z,25.00
2018-06-16T13:08:04.231Z,25.20
2018-06-16T13:11:07.200Z,25.10
2018-06-16T13:14:10.133Z,24.70
2018-06-16T13:17:13.073Z,24.40
2018-06-16T13:20:16.016Z,24.30
2018-06-16T13:23:18.965Z,24.30
2018-06-16T13:26:21.883Z,24.40
2018-06-16T13:29:24.833Z,24.70
2018-06-16T13:35:30.680Z,25.50
2018-06-16T13:38:33.654Z,25.70
2018-06-16T13:41:36.612Z,25.40
2018-06-16T13:44:39.566Z,25.20
2018-06-16T13:47:42.515Z,25.20
2018-06-16T13:50:45.467Z,24.80
2018-06-16T13:53:48.437Z,24.40
2018-06-16T13:56:51.407Z,24.00
2018-06-16T13:59:54.384Z,23.80
2018-06-16T14:02:57.339Z,23.60
2018-06-16T14:06:00.542Z,23.40
2018-06-16T14:09:06.441Z,23.30
2018-06-16T14:12:09.473Z,23.30
2018-06-16T14:15:12.828Z,23.20
2018-06-16T14:18:15.786Z,23.20
2018-06-16T14:21:18.745Z,23.10
2018-06-16T14:24:21.710Z,23.10
2018-06-16T14:27:24.653Z,23.10
2018-06-16T14:30:27.786Z,23.00
2018-06-16T14:33:30.794Z,23.00
2018-06-16T14:36:33.784Z,23.00
2018-06-16T14:42:39.685Z,23.00
2018-06-16T14:45:42.639Z,23.00
2018-06-16T14:48:45.600Z,23.00
2018-06-16T14:54:58.298Z,23.20
2018-06-16T14:58:04.403Z,23.80
2018-06-16T15:01:11.382Z,24.60
2018-06-16T15:04:16.121Z,25.00
2018-06-16T15:07:21.552Z,25.10
2018-06-16T15:10:27.456Z,25.10
2018-06-16T15:13:36.090Z,25.30
2018-06-16T15:16:41.484Z,25.30
2018-06-16T15:19:47.116Z,25.40
2018-06-16T15:22:53.398Z,25.20
2018-06-16T15:25:58.921Z,25.00
2018-06-16T15:29:03.326Z,24.80
2018-06-16T15:32:08.863Z,24.80
2018-06-16T15:35:14.257Z,24.80
2018-06-16T15:38:20.683Z,24.60
2018-06-16T15:41:25.361Z,24.70
2018-06-16T15:44:29.777Z,25.00
2018-06-16T15:47:35.419Z,25.10
2018-06-16T15:50:41.284Z,25.20
2018-06-16T15:53:47.757Z,25.20
2018-06-16T15:56:52.938Z,25.20
2018-06-16T15:59:59.218Z,25.20
2018-06-16T16:03:04.510Z,25.00
2018-06-16T16:06:09.537Z,24.80
2018-06-16T16:09:15.261Z,24.60
2018-06-16T16:12:20.732Z,24.40
2018-06-16T16:15:25.769Z,24.30
2018-06-16T16:18:31.850Z,24.10
2018-06-16T16:21:38.816Z,24.00
2018-06-16T16:24:43.513Z,24.00
2018-06-16T16:27:48.732Z,24.00
2018-06-16T16:30:53.430Z,24.00
2018-06-16T16:33:58.549Z,24.00
2018-06-16T16:37:02.978Z,23.90
2018-06-16T16:40:08.861Z,23.90
2018-06-16T16:43:13.338Z,23.90
2018-06-16T16:46:17.349Z,23.90
2018-06-16T16:49:23.113Z,23.80
2018-06-16T16:52:28.097Z,23.80
2018-06-16T16:55:32.333Z,23.70
2018-06-16T16:58:37.267Z,23.70
2018-06-16T17:01:42.090Z,23.60
2018-06-16T17:04:48.204Z,23.50
2018-06-16T17:07:53.093Z,23.40
2018-06-16T17:10:57.450Z,23.40
2018-06-16T17:14:02.234Z,23.30
2018-06-16T17:17:07.857Z,23.20
2018-06-16T17:20:12.474Z,23.10
2018-06-16T17:23:16.469Z,23.10
2018-06-16T17:26:52.127Z,22.80
2018-06-16T17:29:56.726Z,22.40
2018-06-16T17:33:01.119Z,22.10
2018-06-16T17:36:06.474Z,21.90
2018-06-16T17:39:11.137Z,21.80
2018-06-16T17:42:16.179Z,21.60
2018-06-16T17:45:20.926Z,21.60
2018-06-16T17:48:25.834Z,21.50
2018-06-16T17:51:31.645Z,21.40
2018-06-16T17:54:37.231Z,21.40
2018-06-16T17:57:41.681Z,21.50
2018-06-16T18:00:46.190Z,21.60
2018-06-16T18:03:51.030Z,21.70
2018-06-16T18:06:55.979Z,21.70
2018-06-16T18:10:00.938Z,21.80
2018-06-16T18:13:05.378Z,21.90
2018-06-16T18:16:10.326Z,21.90
2018-06-16T18:19:15.068Z,21.80
2018-06-16T18:22:20.315Z,21.90
2018-06-16T18:25:25.738Z,21.90
2018-06-16T18:28:33.206Z,21.90
2018-06-16T18:31:37.172Z,21.90
2018-06-16T18:34:41.365Z,22.00
2018-06-16T18:37:45.456Z,21.90
2018-06-16T18:40:50.370Z,21.90
2018-06-16T18:43:55.317Z,22.10
2018-06-16T18:47:00.225Z,22.20
2018-06-16T18:50:05.099Z,22.20
2018-06-16T18:53:09.807Z,22.20
2018-06-16T18:56:16.832Z,22.10
2018-06-16T18:59:21.555Z,22.00
2018-06-16T19:02:27.140Z,22.00
2018-06-16T19:05:32.861Z,21.90
2018-06-16T19:08:37.943Z,21.90
2018-06-16T19:11:43.460Z,21.90
2018-06-16T19:14:48.410Z,21.90
2018-06-16T19:17:53.194Z,21.80
2018-06-16T19:20:58.506Z,21.70
2018-06-16T19:24:02.727Z,21.70
2018-06-16T19:27:07.261Z,21.60
2018-06-16T19:30:11.817Z,21.50
2018-06-16T19:33:18.493Z,21.20
2018-06-16T19:36:23.437Z,21.30
2018-06-16T19:43:13.215Z,21.20
2018-06-16T19:46:17.692Z,20.90
2018-06-16T19:52:28.029Z,21.20
2018-06-16T19:55:32.641Z,21.10
2018-06-16T19:58:37.151Z,21.10
2018-06-16T20:01:41.763Z,21.10
2018-06-16T20:04:48.391Z,21.10
2018-06-16T20:07:53.612Z,21.00
2018-06-16T20:10:58.516Z,21.00
2018-06-16T20:14:03.123Z,20.90
2018-06-16T20:17:07.170Z,20.90
2018-06-16T20:20:11.705Z,21.00
2018-06-16T20:23:15.723Z,20.90
2018-06-16T20:26:20.125Z,21.00
2018-06-16T20:29:24.108Z,21.00
2018-06-16T20:32:29.047Z,21.00
2018-06-16T20:35:33.668Z,21.00
2018-06-16T20:38:37.799Z,21.00
2018-06-16T20:41:44.661Z,20.90
2018-06-16T20:44:49.336Z,20.80
2018-06-16T20:47:53.981Z,20.80
2018-06-16T20:50:58.400Z,20.70
2018-06-16T20:54:03.660Z,20.50
2018-06-16T20:57:08.676Z,20.40
2018-06-16T21:00:13.167Z,20.40
2018-06-16T21:03:17.105Z,20.50
2018-06-16T21:06:21.165Z,20.50
2018-06-16T21:09:25.143Z,20.40
2018-06-16T21:12:29.335Z,20.50
2018-06-16T21:15:33.394Z,20.50
2018-06-16T21:18:37.528Z,20.40
2018-06-16T21:21:41.417Z,20.20
2018-06-16T21:25:48.951Z,20.20
2018-06-16T21:28:52.924Z,20.20
2018-06-16T21:31:58.028Z,20.20
2018-06-16T21:35:02.525Z,20.30
2018-06-16T21:38:06.547Z,20.20
2018-06-16T21:41:11.594Z,20.00
2018-06-16T21:44:15.758Z,20.00
2018-06-16T21:47:19.874Z,20.10
2018-06-16T21:50:23.988Z,20.10
2018-06-16T21:53:28.755Z,20.20
2018-06-16T21:56:32.598Z,20.20
2018-06-16T21:59:37.398Z,20.10
2018-06-16T22:02:41.804Z,20.20
2018-06-16T22:05:46.434Z,20.30
2018-06-16T22:08:54.063Z,20.30
2018-06-16T22:11:58.264Z,20.20
2018-06-16T22:15:02.237Z,20.10
2018-06-16T22:18:07.668Z,20.20
2018-06-16T22:21:11.622Z,20.20
2018-06-16T22:24:15.516Z,20.00
2018-06-16T22:27:19.599Z,19.90
2018-06-16T22:30:23.664Z,20.00
2018-06-16T22:33:27.936Z,20.10
2018-06-16T22:36:32.492Z,20.10
2018-06-16T22:39:36.534Z,20.10
2018-06-16T22:42:40.779Z,20.00
2018-06-16T22:45:44.711Z,19.90
2018-06-16T22:48:49.563Z,19.90
2018-06-16T22:51:53.747Z,19.90
2018-06-16T22:54:57.634Z,20.00
2018-06-16T22:58:02.796Z,20.00
2018-06-16T23:01:07.229Z,20.00
2018-06-16T23:07:15.399Z,20.00
2018-06-16T23:10:19.326Z,19.90
2018-06-16T23:13:23.194Z,19.90
2018-06-16T23:16:26.990Z,19.90
2018-06-16T23:19:30.828Z,19.90
2018-06-16T23:22:34.643Z,19.90
2018-06-16T23:25:39.106Z,19.90
2018-06-16T23:28:43.731Z,20.00
2018-06-16T23:31:48.985Z,20.00
2018-06-16T23:34:53.157Z,20.00
2018-06-16T23:37:57.615Z,19.90
2018-06-16T23:41:01.618Z,19.90
2018-06-16T23:44:05.843Z,19.90
2018-06-16T23:47:09.690Z,19.90
2018-06-16T23:50:13.405Z,19.90
2018-06-16T23:53:17.293Z,19.80
2018-06-16T23:56:21.084Z,19.70
2018-06-16T23:59:24.985Z,19.80
